Time;durP1;ratioP1;P1;durP2;ratioP2;P2;SDS_P1;SDS_P2;PMS_P1;PMS_P2;Temp;Humidity;BMP_temperature;BMP_pressure;BME280_temperature;BME280_humidity;BME280_pressure;Samples;Min_cycle;Max_cycle;Signal;HPM_P1;HPM_P2
2022/05/17 00:00:11;;;;;;;26.10;10.88;;;;;;;8.55;80.88;94779.13;1680254;85;20963;-50
2022/05/17 00:02:40;;;;;;;21.85;10.48;;;;;;;8.50;81.26;94772.81;1680784;85;21074;-50
2022/05/17 00:05:08;;;;;;;22.25;11.03;;;;;;;8.52;81.45;94770.40;1680404;85;21045;-48
2022/05/17 00:07:35;;;;;;;25.17;10.55;;;;;;;8.53;81.42;94766.45;1680360;85;21474;-50
2022/05/17 00:10:01;;;;;;;20.55;10.53;;;;;;;8.52;81.76;94763.55;1680319;85;21542;-49
2022/05/17 00:12:28;;;;;;;17.37;9.35;;;;;;;8.52;81.61;94764.14;1680328;85;20971;-49
2022/05/17 00:14:55;;;;;;;16.95;9.40;;;;;;;8.53;81.62;94761.56;1680400;85;21455;-52
2022/05/17 00:17:21;;;;;;;22.37;9.98;;;;;;;8.53;81.61;94766.45;1680265;85;21042;-49
2022/05/17 00:19:49;;;;;;;29.60;12.15;;;;;;;8.57;81.54;94771.23;1680425;85;20967;-49
2022/05/17 00:22:16;;;;;;;31.00;10.85;;;;;;;8.55;81.09;94771.48;1680418;85;21239;-49
2022/05/17 00:24:43;;;;;;;16.57;8.78;;;;;;;8.48;80.97;94769.73;1680379;85;21002;-50
2022/05/17 00:27:09;;;;;;;22.20;10.50;;;;;;;8.41;81.26;94764.42;1678052;85;21002;-50
2022/05/17 00:29:36;;;;;;;23.80;10.48;;;;;;;8.38;81.55;94766.66;1678127;85;21035;-48
2022/05/17 00:32:05;;;;;;;23.90;10.35;;;;;;;8.32;81.22;94767.03;1680470;85;21534;-49
2022/05/17 00:34:31;;;;;;;16.15;9.60;;;;;;;8.27;81.37;94762.05;1680794;85;21837;-50
2022/05/17 00:36:58;;;;;;;15.30;8.63;;;;;;;8.22;81.27;94759.84;1680351;85;20997;-49
2022/05/17 00:39:24;;;;;;;17.20;10.35;;;;;;;8.17;81.49;94760.94;1680721;85;21443;-49
2022/05/17 00:41:51;;;;;;;22.17;10.25;;;;;;;8.13;81.63;94759.67;1678087;85;21529;-50
2022/05/17 00:47:11;;;;;;;15.00;9.78;;;;;;;8.10;81.53;94750.92;1680561;85;21258;-49
2022/05/17 00:50:06;;;;;;;18.32;9.05;;;;;;;8.01;81.47;94742.56;1669040;85;21030;-48
2022/05/17 00:52:47;;;;;;;18.90;9.43;;;;;;;7.96;81.97;94748.57;1680378;85;21014;-49
2022/05/17 00:55:26;;;;;;;22.98;10.20;;;;;;;7.91;82.10;94744.20;1655600;85;21522;-49
2022/05/17 00:58:15;;;;;;;24.85;12.95;;;;;;;7.87;82.23;94748.39;1680459;85;21078;-48
2022/05/17 01:00:49;;;;;;;28.85;10.78;;;;;;;7.85;82.42;94746.69;1680855;85;21086;-49
2022/05/17 01:03:17;;;;;;;18.75;9.68;;;;;;;7.83;82.25;94743.61;1680532;85;21061;-49
2022/05/17 01:05:46;;;;;;;22.15;10.75;;;;;;;7.81;82.46;94742.48;1680539;85;21521;-49
2022/05/17 01:08:14;;;;;;;22.98;10.80;;;;;;;7.81;82.51;94747.97;1680515;85;21038;-50
2022/05/17 01:10:41;;;;;;;30.02;10.65;;;;;;;7.80;82.12;94745.06;1680558;85;21525;-49
2022/05/17 01:15:54;;;;;;;19.37;10.08;;;;;;;7.70;82.43;94738.64;1680359;85;21811;-49
2022/05/17 01:18:21;;;;;;;20.50;10.40;;;;;;;7.71;82.33;94741.55;1680584;85;21510;-50
2022/05/17 01:20:47;;;;;;;29.82;11.00;;;;;;;7.70;82.10;94750.21;1680416;85;21458;-49
2022/05/17 01:23:14;;;;;;;24.18;9.30;;;;;;;7.70;82.06;94734.54;1680439;85;21018;-50
2022/05/17 01:25:41;;;;;;;15.60;8.20;;;;;;;7.72;82.13;94732.14;1680484;85;21139;-49
2022/05/17 01:28:20;;;;;;;21.70;9.63;;;;;;;7.74;82.22;94737.95;1680385;85;20975;-50
2022/05/17 01:30:47;;;;;;;21.00;8.85;;;;;;;7.74;82.27;94740.69;1680549;85;21011;-49
2022/05/17 01:33:18;;;;;;;20.35;8.55;;;;;;;7.73;82.01;94730.94;1680464;85;21038;-52
2022/05/17 01:35:45;;;;;;;18.40;9.25;;;;;;;7.74;81.87;94728.98;1680454;85;20971;-49
2022/05/17 01:38:12;;;;;;;26.07;10.18;;;;;;;7.74;81.79;94731.72;1680496;85;21134;-49
2022/05/17 01:40:39;;;;;;;24.57;9.08;;;;;;;7.73;81.71;94721.97;1680403;85;20968;-49
2022/05/17 01:43:06;;;;;;;33.88;11.55;;;;;;;7.72;81.57;94720.44;1680507;85;21147;-50
2022/05/17 01:45:33;;;;;;;27.10;13.15;;;;;;;7.70;81.21;94720.09;1680374;85;21014;-49
2022/05/17 01:48:00;;;;;;;38.28;12.82;;;;;;;7.65;81.09;94732.32;1680412;85;21113;-49
2022/05/17 01:50:27;;;;;;;40.40;14.00;;;;;;;7.62;80.90;94727.71;1656207;85;21242;-50
2022/05/17 01:52:53;;;;;;;29.20;9.93;;;;;;;7.60;80.77;94730.11;1685784;85;21521;-50
2022/05/17 01:55:20;;;;;;;27.77;10.50;;;;;;;7.58;80.83;94731.14;1685853;85;21136;-51
2022/05/17 01:57:47;;;;;;;27.75;11.05;;;;;;;7.59;81.33;94720.36;1664207;85;20986;-49
2022/05/17 02:00:16;;;;;;;17.95;9.35;;;;;;;7.62;81.45;94724.97;1685936;85;21033;-49
2022/05/17 02:02:42;;;;;;;11.65;7.15;;;;;;;7.64;81.29;94725.89;1686159;85;21104;-49
2022/05/17 02:05:10;;;;;;;21.60;8.80;;;;;;;7.60;81.33;94723.27;1685825;85;21560;-49
2022/05/17 02:07:38;;;;;;;14.58;8.18;;;;;;;7.54;81.30;94729.06;1685840;85;21019;-50
2022/05/17 02:10:08;;;;;;;13.18;8.18;;;;;;;7.45;81.29;94720.70;1685956;85;21640;-50
2022/05/17 02:12:34;;;;;;;16.87;8.00;;;;;;;7.40;81.41;94722.58;1686157;85;21039;-50
2022/05/17 02:15:07;;;;;;;19.95;8.95;;;;;;;7.34;81.63;94722.90;1685966;85;21522;-50
2022/05/17 02:17:38;;;;;;;14.83;7.63;;;;;;;7.25;81.83;94728.20;1686228;85;21058;-49
2022/05/17 02:20:07;;;;;;;11.78;7.40;;;;;;;7.19;82.22;94731.26;1664202;85;21310;-49
2022/05/17 02:22:34;;;;;;;13.45;7.60;;;;;;;7.17;82.43;94724.08;1686130;85;21561;-49
2022/05/17 02:25:01;;;;;;;22.37;8.58;;;;;;;7.13;82.58;94729.48;1685890;85;21114;-50
2022/05/17 02:27:28;;;;;;;13.45;7.45;;;;;;;7.06;82.51;94732.97;1685770;85;21128;-49
2022/05/17 02:29:55;;;;;;;18.20;8.90;;;;;;;6.97;82.62;94727.29;1685905;85;21059;-49
2022/05/17 02:32:24;;;;;;;34.35;10.72;;;;;;;6.89;82.93;94723.19;1685820;85;21045;-49
2022/05/17 02:34:51;;;;;;;19.50;9.03;;;;;;;6.86;82.94;94725.41;1685815;85;21018;-48
2022/05/17 02:37:18;;;;;;;18.27;8.38;;;;;;;6.85;83.20;94721.13;1685807;85;21080;-50
2022/05/17 02:39:45;;;;;;;19.73;7.55;;;;;;;6.88;83.22;94727.11;1685770;85;21180;-48
2022/05/17 02:42:12;;;;;;;16.95;7.22;;;;;;;6.87;83.18;94725.58;1685818;85;21029;-49
2022/05/17 02:44:39;;;;;;;12.45;7.78;;;;;;;6.86;83.16;94729.50;1685949;85;21600;-49
2022/05/17 02:47:09;;;;;;;14.47;6.35;;;;;;;6.85;83.38;94723.25;1685866;85;21022;-50
2022/05/17 02:49:35;;;;;;;15.83;6.95;;;;;;;6.82;83.36;94735.04;1685854;85;21003;-50
2022/05/17 02:52:03;;;;;;;12.13;6.80;;;;;;;6.79;83.40;94735.89;1681681;84;21318;-49
2022/05/17 02:54:30;;;;;;;17.77;7.78;;;;;;;6.79;83.67;94741.94;1680459;85;21037;-49
2022/05/17 02:56:57;;;;;;;37.73;11.12;;;;;;;6.80;83.73;94738.80;1680431;85;20987;-48
2022/05/17 02:59:24;;;;;;;33.98;10.60;;;;;;;6.79;83.67;94737.26;1680437;85;21035;-49
2022/05/17 03:01:52;;;;;;;24.65;9.78;;;;;;;6.84;83.76;94734.59;1680403;85;21556;-50
2022/05/17 03:04:19;;;;;;;21.17;9.48;;;;;;;6.89;83.84;94736.86;1655400;85;21171;-50
2022/05/17 03:06:46;;;;;;;24.10;9.53;;;;;;;7.00;83.81;94730.54;1680279;85;21443;-49
2022/05/17 03:09:13;;;;;;;13.45;7.05;;;;;;;7.10;83.63;94731.67;1678084;85;21026;-48
2022/05/17 03:11:43;;;;;;;30.55;8.65;;;;;;;7.14;83.17;94734.51;1680414;85;21094;-49
2022/05/17 03:14:14;;;;;;;13.13;7.80;;;;;;;7.15;82.96;94732.55;1680707;85;21641;-48
2022/05/17 03:16:41;;;;;;;14.40;7.42;;;;;;;7.14;82.94;94734.51;1680319;85;21574;-49
2022/05/17 03:19:10;;;;;;;15.90;8.13;;;;;;;7.11;82.93;94735.95;1680305;85;20979;-52
2022/05/17 03:21:37;;;;;;;14.90;7.90;;;;;;;7.07;83.18;94735.27;1680424;85;20987;-49
2022/05/17 03:24:05;;;;;;;19.10;8.18;;;;;;;7.09;83.24;94730.91;1680413;85;21514;-50
2022/05/17 03:26:32;;;;;;;17.77;8.95;;;;;;;7.10;83.21;94739.30;1680588;85;21014;-49
2022/05/17 03:28:59;;;;;;;20.68;8.30;;;;;;;7.10;83.51;94737.92;1680274;85;21156;-49
2022/05/17 03:31:26;;;;;;;8.53;6.47;;;;;;;7.16;83.46;94738.20;1680449;85;21554;-49
2022/05/17 03:33:53;;;;;;;17.80;8.38;;;;;;;7.18;83.16;94740.66;1680398;85;21066;-48
2022/05/17 03:36:20;;;;;;;20.35;9.48;;;;;;;7.19;83.24;94740.08;1680273;85;21065;-50
2022/05/17 03:38:46;;;;;;;28.98;9.63;;;;;;;7.29;83.37;94741.78;1680458;85;21462;-49
2022/05/17 03:41:15;;;;;;;18.82;9.95;;;;;;;7.38;82.89;94740.61;1680374;85;21264;-50
2022/05/17 03:43:41;;;;;;;20.90;9.58;;;;;;;7.45;82.76;94734.37;1680338;85;21522;-48
2022/05/17 03:46:09;;;;;;;20.50;8.58;;;;;;;7.54;82.35;94735.16;1680384;85;21459;-49
2022/05/17 03:48:37;;;;;;;19.98;8.20;;;;;;;7.56;82.12;94733.51;1680324;85;21127;-50
2022/05/17 03:51:17;;;;;;;21.93;8.08;;;;;;;7.61;82.11;94733.02;1681371;84;21668;-48
2022/05/17 03:53:44;;;;;;;14.30;8.50;;;;;;;7.66;81.75;94729.75;1685747;85;21188;-49
2022/05/17 03:56:11;;;;;;;20.70;9.38;;;;;;;7.70;81.68;94726.32;1685728;85;21521;-49
2022/05/17 03:58:38;;;;;;;22.15;9.13;;;;;;;7.73;81.77;94730.19;1685917;85;20974;-51
2022/05/17 04:01:06;;;;;;;19.60;9.00;;;;;;;7.81;81.70;94723.32;1685894;85;20982;-49
2022/05/17 04:03:33;;;;;;;22.22;8.98;;;;;;;7.89;81.57;94726.06;1685901;85;21025;-49
2022/05/17 04:06:01;;;;;;;14.95;7.15;;;;;;;7.99;81.30;94718.94;1685952;85;21022;-50
2022/05/17 04:08:28;;;;;;;23.30;8.55;;;;;;;8.08;81.00;94723.19;1685983;85;20979;-48
2022/05/17 04:10:58;;;;;;;10.23;6.97;;;;;;;8.13;81.01;94721.31;1685898;85;21117;-48
2022/05/17 04:13:29;;;;;;;15.85;8.08;;;;;;;8.25;80.89;94718.48;1687359;85;21015;-50
2022/05/17 04:15:54;;;;;;;15.90;8.00;;;;;;;8.31;80.78;94717.53;1686007;85;21034;-52
2022/05/17 04:18:21;;;;;;;16.95;7.85;;;;;;;8.40;80.68;94725.88;1685960;85;21109;-53
2022/05/17 04:20:48;;;;;;;11.90;6.83;;;;;;;8.45;80.50;94721.84;1685917;85;21019;-48
2022/05/17 04:23:15;;;;;;;11.30;7.00;;;;;;;8.51;80.43;94722.84;1685833;85;21062;-47
2022/05/17 04:25:41;;;;;;;13.68;7.67;;;;;;;8.62;80.03;94715.10;1685942;85;21462;-54
2022/05/17 04:28:08;;;;;;;16.10;7.87;;;;;;;8.70;79.90;94713.09;1685908;85;20990;-50
2022/05/17 04:30:35;;;;;;;16.00;7.58;;;;;;;8.79;79.76;94714.58;1664462;85;21149;-51
2022/05/17 04:33:02;;;;;;;10.82;7.42;;;;;;;8.85;79.45;94707.38;1686028;85;21013;-51
2022/05/17 04:35:29;;;;;;;14.60;9.03;;;;;;;8.92;79.27;94706.53;1685945;85;20967;-50
2022/05/17 04:37:55;;;;;;;13.45;7.60;;;;;;;8.98;79.19;94703.43;1685803;85;21026;-50
2022/05/17 04:40:22;;;;;;;10.58;6.60;;;;;;;9.04;78.73;94699.55;1685989;85;20979;-51
2022/05/17 04:42:50;;;;;;;17.80;8.00;;;;;;;9.07;78.67;94694.55;1686045;85;21221;-50
2022/05/17 04:45:17;;;;;;;10.28;7.92;;;;;;;9.09;78.62;94690.76;1685782;85;21006;-50
2022/05/17 04:47:44;;;;;;;25.92;7.92;;;;;;;9.14;78.63;94690.20;1685862;85;21013;-49
2022/05/17 04:50:12;;;;;;;13.62;7.20;;;;;;;9.17;78.60;94690.10;1685907;85;21052;-48
2022/05/17 04:52:39;;;;;;;17.15;8.90;;;;;;;9.26;78.62;94690.81;1681724;85;21561;-48
2022/05/17 04:55:08;;;;;;;20.43;10.30;;;;;;;9.34;78.46;94689.37;1680508;85;21479;-49
2022/05/17 04:57:37;;;;;;;10.53;7.17;;;;;;;9.49;78.45;94689.09;1680499;85;20986;-48
2022/05/17 05:00:08;;;;;;;18.32;7.97;;;;;;;9.68;78.02;94683.95;1655589;85;21045;-48
2022/05/17 05:02:35;;;;;;;11.73;7.40;;;;;;;9.85;77.73;94688.09;1680722;85;21063;-49
2022/05/17 05:05:04;;;;;;;13.88;7.28;;;;;;;10.04;77.30;94691.20;1655427;85;21078;-49
2022/05/17 05:07:32;;;;;;;9.85;6.42;;;;;;;10.19;76.82;94686.76;1680520;85;21176;-48
2022/05/17 05:09:58;;;;;;;10.25;6.08;;;;;;;10.32;76.35;94689.61;1680332;85;21018;-50
2022/05/17 05:12:25;;;;;;;8.48;5.50;;;;;;;10.49;76.03;94684.09;1680259;85;21703;-49
2022/05/17 05:14:52;;;;;;;15.50;6.55;;;;;;;10.70;75.55;94686.69;1680492;85;21018;-47
2022/05/17 05:17:18;;;;;;;13.85;5.85;;;;;;;10.86;74.67;94681.14;1680334;85;21451;-51
2022/05/17 05:19:45;;;;;;;9.75;6.53;;;;;;;10.92;74.01;94687.58;1647527;86;22136;-47
2022/05/17 05:22:12;;;;;;;17.62;5.97;;;;;;;11.00;73.86;94683.95;1680984;85;21045;-49
2022/05/17 05:24:38;;;;;;;12.00;6.22;;;;;;;11.12;73.35;94683.86;1655511;85;20986;-48
2022/05/17 05:27:06;;;;;;;13.18;5.90;;;;;;;11.28;72.70;94689.14;1654888;85;20986;-49
2022/05/17 05:29:34;;;;;;;15.20;5.78;;;;;;;11.45;71.87;94682.77;1681793;85;21037;-48
2022/05/17 05:32:00;;;;;;;7.50;5.35;;;;;;;11.61;71.02;94687.46;1681916;85;21741;-51
2022/05/17 05:34:29;;;;;;;10.60;5.15;;;;;;;11.76;70.53;94680.16;1680590;84;20954;-50
2022/05/17 05:36:56;;;;;;;7.97;4.53;;;;;;;11.91;70.14;94679.70;1652022;85;21446;-50
2022/05/17 05:39:24;;;;;;;12.23;5.42;;;;;;;12.05;69.35;94681.13;1676927;84;21518;-49
2022/05/17 05:41:52;;;;;;;16.20;13.25;;;;;;;12.14;68.96;94673.63;1645886;85;21088;-49
2022/05/17 05:44:20;;;;;;;22.10;8.28;;;;;;;12.22;68.23;94677.61;1681251;85;21451;-51
2022/05/17 05:46:47;;;;;;;10.70;5.65;;;;;;;12.23;68.21;94676.38;1675905;85;21097;-49
2022/05/17 05:49:17;;;;;;;24.57;6.10;;;;;;;12.25;68.37;94673.17;1654623;85;21089;-50
2022/05/17 05:51:46;;;;;;;17.50;6.30;;;;;;;12.33;68.45;94677.16;1671989;84;21049;-49
2022/05/17 05:54:12;;;;;;;8.10;5.70;;;;;;;12.41;68.35;94661.84;1640128;84;21029;-50
2022/05/17 05:56:38;;;;;;;15.95;5.67;;;;;;;12.47;67.82;94657.98;1654302;84;21584;-49
2022/05/17 05:59:05;;;;;;;15.00;5.50;;;;;;;12.52;67.50;94660.74;1684468;84;21056;-48
2022/05/17 06:01:32;;;;;;;17.70;5.87;;;;;;;12.57;67.59;94656.76;1677804;84;21033;-51
2022/05/17 06:04:02;;;;;;;14.33;5.85;;;;;;;12.70;67.85;94660.13;1689758;84;21514;-50
2022/05/17 06:06:30;;;;;;;12.40;5.50;;;;;;;12.83;67.39;94652.41;1674553;84;22020;-49
2022/05/17 06:08:57;;;;;;;9.08;4.78;;;;;;;12.94;66.86;94648.59;1669569;84;21200;-50
2022/05/17 06:11:23;;;;;;;8.65;5.17;;;;;;;13.06;66.63;94652.54;1676969;84;21029;-49
2022/05/17 06:13:51;;;;;;;6.85;4.42;;;;;;;13.20;66.22;94646.97;1676425;84;21025;-50
2022/05/17 06:16:18;;;;;;;5.72;4.35;;;;;;;13.35;65.54;94644.47;1677087;83;21925;-54
2022/05/17 06:18:44;;;;;;;16.48;5.70;;;;;;;13.50;64.95;94641.78;1679434;84;21121;-51
2022/05/17 06:21:11;;;;;;;7.33;5.28;;;;;;;13.65;64.52;94637.85;1688012;84;21173;-51
2022/05/17 06:23:38;;;;;;;14.70;6.40;;;;;;;13.80;64.13;94631.78;1673829;84;21117;-53
2022/05/17 06:26:06;;;;;;;9.78;4.58;;;;;;;13.88;63.48;94631.59;1679841;84;21029;-58
2022/05/17 06:28:33;;;;;;;12.60;4.67;;;;;;;14.02;63.39;94630.11;1673551;84;21025;-55
2022/05/17 06:31:00;;;;;;;9.13;4.75;;;;;;;14.17;62.94;94622.66;1674583;84;21041;-49
2022/05/17 06:33:29;;;;;;;9.93;4.35;;;;;;;14.33;62.42;94628.52;1649995;85;21186;-52
2022/05/17 06:35:57;;;;;;;14.07;7.12;;;;;;;14.48;62.10;94623.14;1676360;84;21022;-54
2022/05/17 06:38:25;;;;;;;14.43;9.53;;;;;;;14.65;61.82;94617.29;1684572;84;21072;-53
2022/05/17 06:40:53;;;;;;;7.58;5.53;;;;;;;14.89;61.55;94617.99;1678334;84;21637;-53
2022/05/17 06:43:19;;;;;;;9.08;4.70;;;;;;;15.14;61.32;94626.34;1677877;84;21061;-49
2022/05/17 06:45:46;;;;;;;10.05;4.72;;;;;;;15.39;60.75;94614.67;1676231;84;21237;-49
2022/05/17 06:48:13;;;;;;;7.00;4.08;;;;;;;15.59;60.04;94613.34;1658544;84;21577;-50
2022/05/17 06:50:40;;;;;;;6.97;4.00;;;;;;;15.77;59.93;94604.13;1676637;84;22535;-53
2022/05/17 06:53:08;;;;;;;8.18;4.20;;;;;;;15.99;59.53;94611.38;1677690;84;21085;-50
2022/05/17 06:55:36;;;;;;;12.23;5.40;;;;;;;16.21;59.65;94600.55;1682907;83;21092;-50
2022/05/17 06:58:05;;;;;;;8.48;4.15;;;;;;;16.42;58.72;94609.03;1649108;83;21256;-50
2022/05/17 07:00:32;;;;;;;10.32;4.08;;;;;;;16.67;58.58;94598.56;1673554;83;21092;-54
2022/05/17 07:03:00;;;;;;;8.85;3.45;;;;;;;16.92;56.78;94597.81;1657794;85;21205;-53
2022/05/17 07:05:29;;;;;;;6.55;3.67;;;;;;;17.09;56.43;94592.53;1682996;83;21074;-51
2022/05/17 07:08:01;;;;;;;4.70;3.40;;;;;;;17.27;56.08;94590.78;1662828;84;21065;-53
2022/05/17 07:13:14;;;;;;;7.42;4.08;;;;;;;17.62;54.08;94578.06;1683496;83;21494;-55
2022/05/17 07:15:47;;;;;;;6.60;4.03;;;;;;;17.77;53.74;94573.06;1687999;83;21037;-52
2022/05/17 07:18:15;;;;;;;8.93;4.00;;;;;;;17.88;53.57;94570.36;1681611;83;21448;-55
2022/05/17 07:20:43;;;;;;;9.08;3.58;;;;;;;17.96;52.98;94567.22;1680435;83;21032;-49
2022/05/17 07:23:11;;;;;;;6.72;4.15;;;;;;;18.02;53.00;94556.25;1647018;85;22260;-51
2022/05/17 07:25:40;;;;;;;7.47;3.45;;;;;;;18.11;52.33;94556.66;1678215;83;21080;-51
2022/05/17 07:28:09;;;;;;;17.35;7.35;;;;;;;18.20;52.06;94553.80;1681451;83;21084;-54
2022/05/17 07:30:36;;;;;;;10.10;3.87;;;;;;;18.28;51.70;94554.12;1661486;85;21093;-54
2022/05/17 07:33:03;;;;;;;8.63;3.95;;;;;;;18.33;51.15;94547.80;1658815;83;21421;-49
2022/05/17 07:35:30;;;;;;;5.30;3.52;;;;;;;18.41;52.16;94544.64;1679404;83;21138;-53
2022/05/17 07:37:57;;;;;;;14.40;3.90;;;;;;;18.56;51.23;94545.97;1683568;83;21085;-48
2022/05/17 07:40:24;;;;;;;8.98;3.42;;;;;;;18.72;50.65;94538.27;1683824;83;21082;-50
2022/05/17 07:42:52;;;;;;;5.17;3.52;;;;;;;18.86;49.81;94540.69;1661588;85;21104;-51
2022/05/17 07:45:19;;;;;;;8.68;4.92;;;;;;;18.96;50.12;94530.19;1680574;83;20994;-52
2022/05/17 07:47:46;;;;;;;7.80;4.47;;;;;;;19.08;50.36;94524.74;1666745;83;21247;-55
2022/05/17 07:50:13;;;;;;;7.05;3.50;;;;;;;19.19;50.06;94527.55;1685803;83;21280;-54
2022/05/17 07:52:42;;;;;;;7.45;3.17;;;;;;;19.31;49.85;94515.12;1690541;83;21015;-53
2022/05/17 07:55:10;;;;;;;6.62;3.50;;;;;;;19.45;48.95;94518.90;1686790;83;21072;-52
2022/05/17 07:57:39;;;;;;;7.62;3.67;;;;;;;19.56;48.65;94516.84;1676522;83;21033;-52
2022/05/17 08:00:09;;;;;;;5.22;2.92;;;;;;;19.64;47.87;94511.50;1672243;83;21296;-52
2022/05/17 08:02:39;;;;;;;5.95;3.35;;;;;;;19.75;48.19;94508.04;1664429;83;21080;-50
2022/05/17 08:05:10;;;;;;;6.03;3.35;;;;;;;19.85;46.98;94501.54;1689036;83;21550;-51
2022/05/17 08:07:38;;;;;;;7.90;3.15;;;;;;;19.98;45.51;94506.72;1686005;83;21104;-51
2022/05/17 08:10:06;;;;;;;7.12;3.27;;;;;;;20.11;46.03;94502.73;1685227;83;21017;-50
2022/05/17 08:12:37;;;;;;;9.28;3.25;;;;;;;20.22;46.27;94499.91;1682150;83;21160;-51
2022/05/17 08:15:05;;;;;;;4.35;2.90;;;;;;;20.35;45.85;94498.70;1683927;83;21139;-49
2022/05/17 08:17:32;;;;;;;10.18;3.65;;;;;;;20.51;46.01;94490.84;1683622;83;21120;-51
2022/05/17 08:20:00;;;;;;;3.90;2.70;;;;;;;20.68;44.74;94485.91;1689733;83;48617;-53
2022/05/17 08:22:27;;;;;;;5.53;2.65;;;;;;;20.86;44.52;94483.90;1681795;83;21034;-52
2022/05/17 08:27:41;;;;;;;6.35;2.47;;;;;;;21.15;45.14;94484.56;1682669;83;21128;-52
2022/05/17 08:30:16;;;;;;;5.55;2.50;;;;;;;21.30;42.49;94480.75;1687957;83;21073;-51
2022/05/17 08:35:51;;;;;;;3.95;2.17;;;;;;;21.44;41.58;94475.41;1676718;83;21433;-51
2022/05/17 08:38:36;;;;;;;4.90;2.67;;;;;;;21.63;43.26;94474.86;1678281;83;21270;-52
2022/05/17 08:41:37;;;;;;;5.15;2.10;;;;;;;21.79;42.37;94476.69;1664316;83;21116;-51
2022/05/17 08:44:15;;;;;;;7.95;2.75;;;;;;;21.92;43.08;94471.20;1686607;83;21013;-51
2022/05/17 08:47:11;;;;;;;10.93;2.95;;;;;;;22.09;41.43;94465.53;1676684;85;21129;-50
2022/05/17 08:49:49;;;;;;;5.17;2.95;;;;;;;22.26;40.71;94466.08;1684203;83;21547;-50
2022/05/17 08:52:19;;;;;;;9.88;2.98;;;;;;;22.48;40.54;94460.19;1671590;83;21470;-50
2022/05/17 08:55:16;;;;;;;7.55;2.83;;;;;;;22.65;40.69;94457.91;1682804;83;21061;-51
2022/05/17 08:57:52;;;;;;;6.40;2.60;;;;;;;22.74;39.43;94454.70;1680500;83;21120;-52
2022/05/17 09:00:22;;;;;;;5.87;3.30;;;;;;;22.63;40.48;94451.41;1684640;83;21116;-54
2022/05/17 09:02:59;;;;;;;6.80;2.40;;;;;;;22.50;39.00;94440.79;1622445;86;24697;-55
2022/05/17 09:05:38;;;;;;;8.90;2.85;;;;;;;22.44;39.86;94432.45;1631722;86;21592;-52
2022/05/17 09:08:45;;;;;;;7.12;2.65;;;;;;;22.53;39.87;94448.91;1594694;87;21016;-51
2022/05/17 09:11:34;;;;;;;4.42;2.15;;;;;;;22.66;39.24;94439.13;1642583;85;21167;-49
2022/05/17 09:14:08;;;;;;;14.60;2.98;;;;;;;22.81;39.94;94440.81;1637866;85;21185;-50
2022/05/17 09:16:40;;;;;;;10.03;2.67;;;;;;;22.85;39.94;94437.70;1620811;87;21047;-51
2022/05/17 09:19:07;;;;;;;5.20;2.55;;;;;;;22.85;38.95;94440.52;1601920;87;21254;-51
2022/05/17 09:21:39;;;;;;;5.00;2.30;;;;;;;22.81;39.99;94443.62;1608117;87;21033;-50
2022/05/17 09:24:14;;;;;;;4.58;2.40;;;;;;;22.81;39.80;94436.61;1611052;87;21131;-53
2022/05/17 09:26:52;;;;;;;11.65;3.92;;;;;;;22.91;40.51;94446.78;1611085;86;21156;-51
2022/05/17 09:29:29;;;;;;;9.08;2.85;;;;;;;23.05;39.54;94446.28;1631212;86;21009;-53
2022/05/17 09:32:03;;;;;;;6.45;2.77;;;;;;;23.20;38.97;94447.98;1634937;86;21061;-51
2022/05/17 09:34:41;;;;;;;2.92;2.02;;;;;;;23.32;39.37;94445.09;1633881;86;21056;-53
2022/05/17 09:37:18;;;;;;;8.38;2.25;;;;;;;23.50;40.21;94441.45;1636432;86;21558;-51
2022/05/17 09:39:49;;;;;;;6.97;2.42;;;;;;;23.72;39.62;94443.84;1632491;86;21013;-53
2022/05/17 09:42:33;;;;;;;14.13;2.67;;;;;;;23.94;39.18;94437.07;1611962;87;21955;-50
2022/05/17 09:45:05;;;;;;;4.80;2.30;;;;;;;24.02;37.66;94439.43;1632350;86;22295;-54
2022/05/17 09:47:45;;;;;;;6.78;2.37;;;;;;;24.08;38.88;94437.91;1636735;86;21093;-51
2022/05/17 09:53:17;;;;;;;6.08;2.12;;;;;;;24.33;38.80;94428.69;1601326;87;20992;-54
2022/05/17 09:55:49;;;;;;;7.92;2.47;;;;;;;24.39;36.89;94432.79;1623101;88;21149;-51
2022/05/17 09:58:33;;;;;;;8.13;2.47;;;;;;;24.24;37.39;94428.38;1637035;86;24579;-51
2022/05/17 10:01:01;;;;;;;9.75;4.45;;;;;;;24.21;38.05;94430.22;1635739;86;21135;-50
2022/05/17 10:03:32;;;;;;;10.03;2.65;;;;;;;24.23;36.26;94414.22;1613554;87;21060;-53
2022/05/17 10:06:07;;;;;;;;;;;;;;;24.29;37.94;94419.83;1620621;87;21033;-51
2022/05/17 10:08:44;;;;;;;7.22;2.72;;;;;;;24.27;37.96;94414.00;1634300;86;20182;-53
2022/05/17 10:11:22;;;;;;;7.03;2.80;;;;;;;24.20;37.26;94416.72;1633375;86;22172;-53
2022/05/17 10:14:03;;;;;;;6.62;2.10;;;;;;;24.11;37.22;94415.74;1623226;88;21596;-54
2022/05/17 10:17:03;;;;;;;6.12;2.65;;;;;;;24.09;37.17;94421.16;1656822;85;21427;-51
2022/05/17 10:19:43;;;;;;;6.55;2.30;;;;;;;24.02;37.31;94417.61;1648044;85;21101;-51
2022/05/17 10:22:37;;;;;;;9.05;2.92;;;;;;;23.99;37.38;94413.08;1623362;86;21069;-52
2022/05/17 10:25:43;;;;;;;4.53;2.20;;;;;;;23.84;37.66;94414.27;1616208;87;21076;-51
2022/05/17 10:28:28;;;;;;;4.50;1.90;;;;;;;23.64;37.89;94412.09;1630268;86;21097;-50
2022/05/17 10:30:58;;;;;;;6.53;2.98;;;;;;;23.62;37.68;94413.91;1604492;88;21541;-53
2022/05/17 10:33:41;;;;;;;7.03;2.75;;;;;;;23.53;38.67;94420.71;1623994;88;21041;-54
2022/05/17 10:36:26;;;;;;;6.75;2.60;;;;;;;23.47;38.62;94420.07;1621530;87;21643;-54
2022/05/17 10:39:00;;;;;;;3.35;2.20;;;;;;;23.55;38.94;94418.12;1622066;88;21225;-51
2022/05/17 10:41:27;;;;;;;5.50;2.22;;;;;;;23.80;39.18;94427.87;1621729;88;21006;-54
2022/05/17 10:43:54;;;;;;;6.20;2.05;;;;;;;23.93;38.17;94429.27;1622742;88;21113;-54
2022/05/17 10:46:31;;;;;;;5.42;2.72;;;;;;;24.10;37.14;94422.67;1628844;86;21457;-53
2022/05/17 10:49:23;;;;;;;6.65;2.20;;;;;;;24.24;37.63;94419.28;1621340;87;22260;-53
2022/05/17 10:52:19;;;;;;;5.85;2.40;;;;;;;24.50;37.33;94415.65;1622587;87;21365;-52
2022/05/17 10:55:20;;;;;;;5.33;2.30;;;;;;;24.85;37.80;94407.44;1617117;87;21084;-53
2022/05/17 10:58:06;;;;;;;5.17;2.58;;;;;;;24.83;37.60;94407.88;1629174;86;21034;-53
2022/05/17 11:00:49;;;;;;;4.87;2.70;;;;;;;24.56;35.88;94402.27;1631281;86;21163;-52
2022/05/17 11:03:49;;;;;;;5.42;2.30;;;;;;;24.01;37.09;94409.07;1621709;87;21414;-52
2022/05/17 11:06:27;;;;;;;6.10;2.60;;;;;;;23.44;38.09;94402.90;1653469;84;21893;-53
2022/05/17 11:09:18;;;;;;;6.00;2.67;;;;;;;22.97;39.25;94405.35;1676248;84;21140;-51
2022/05/17 11:12:09;;;;;;;9.63;2.85;;;;;;;22.64;40.12;94405.91;1669661;84;20974;-53
2022/05/17 11:14:47;;;;;;;6.42;2.22;;;;;;;22.33;40.09;94399.59;1673085;84;21041;-53
2022/05/17 11:17:50;;;;;;;7.62;2.72;;;;;;;22.02;40.38;94403.73;1673200;84;21005;-50
2022/05/17 11:20:24;;;;;;;8.75;4.10;;;;;;;21.84;41.19;94398.86;1676127;84;21243;-55
2022/05/17 11:23:13;;;;;;;18.80;3.55;;;;;;;21.78;41.90;94399.55;1676280;84;21033;-53
2022/05/17 11:26:22;;;;;;;5.10;2.62;;;;;;;21.81;41.88;94383.86;1683579;84;20989;-51
2022/05/17 11:29:22;;;;;;;5.37;2.67;;;;;;;22.04;41.57;94387.25;1676550;84;21510;-56
2022/05/17 11:32:17;;;;;;;6.12;2.60;;;;;;;22.22;42.21;94394.89;1673379;84;21080;-56
2022/05/17 11:34:45;;;;;;;5.85;2.77;;;;;;;22.29;41.86;94392.88;1669596;84;21435;-51
2022/05/17 11:37:38;;;;;;;3.83;2.60;;;;;;;22.22;41.28;94389.30;1669920;84;21710;-53
2022/05/17 11:40:07;;;;;;;7.50;2.90;;;;;;;22.10;41.77;94386.52;1672327;84;21054;-52
2022/05/17 11:45:49;;;;;;;7.28;2.87;;;;;;;21.75;42.01;94387.39;1670414;85;21073;-55
2022/05/17 11:48:27;;;;;;;5.42;2.72;;;;;;;21.54;42.35;94388.37;1667932;84;21253;-53
2022/05/17 11:51:01;;;;;;;9.08;3.55;;;;;;;21.35;41.83;94391.77;1653013;84;20968;-54
2022/05/17 11:53:33;;;;;;;7.72;4.03;;;;;;;21.17;42.43;94391.06;1675589;84;21104;-54
2022/05/17 11:56:21;;;;;;;5.97;3.60;;;;;;;21.04;42.82;94396.53;1677712;84;21048;-54
2022/05/17 11:58:57;;;;;;;7.15;3.20;;;;;;;20.88;43.12;94389.05;1676075;84;21073;-53
2022/05/17 12:01:36;;;;;;;7.00;3.10;;;;;;;20.76;43.73;94389.02;1675107;84;21592;-53
2022/05/17 12:04:26;;;;;;;6.83;3.12;;;;;;;20.63;44.07;94384.67;1672778;84;21057;-51
2022/05/17 12:07:04;;;;;;;10.38;3.42;;;;;;;20.53;44.94;94387.69;1670771;84;21057;-56
2022/05/17 12:09:33;;;;;;;10.50;3.10;;;;;;;20.43;45.88;94385.85;1670821;84;21539;-52
2022/05/17 12:12:27;;;;;;;9.18;3.15;;;;;;;20.33;46.22;94390.23;1648195;84;21018;-56